createdAt,value
2019-05-26T00:00:21.509Z,7.20
2019-05-26T00:02:53.775Z,10.33
2019-05-26T00:05:26.666Z,12.07
2019-05-26T00:07:59.093Z,11.43
2019-05-26T00:10:31.058Z,13.93
2019-05-26T00:13:02.226Z,13.50
2019-05-26T00:15:40.635Z,14.20
2019-05-26T00:18:12.775Z,14.33
2019-05-26T00:20:45.698Z,13.67
2019-05-26T00:23:18.939Z,11.93
2019-05-26T00:25:49.788Z,12.27
2019-05-26T00:28:24.786Z,11.50
2019-05-26T00:30:57.261Z,10.83
2019-05-26T00:33:29.675Z,11.93
2019-05-26T00:36:00.839Z,11.27
2019-05-26T00:38:33.077Z,11.37
2019-05-26T00:41:03.841Z,11.57
2019-05-26T00:43:34.123Z,11.60
2019-05-26T00:46:04.929Z,11.40
2019-05-26T00:48:37.402Z,11.60
2019-05-26T00:51:10.327Z,10.67
2019-05-26T00:53:41.407Z,10.63
2019-05-26T00:56:11.328Z,10.17
2019-05-26T00:58:42.399Z,10.97
2019-05-26T01:01:13.444Z,9.83
2019-05-26T01:03:45.389Z,9.93
2019-05-26T01:06:18.205Z,8.70
2019-05-26T01:08:49.168Z,9.17
2019-05-26T01:11:22.138Z,8.90
2019-05-26T01:13:54.516Z,9.10
2019-05-26T01:16:26.652Z,9.50
2019-05-26T01:18:57.926Z,10.50
2019-05-26T01:21:30.102Z,10.27
2019-05-26T01:24:01.150Z,12.17
2019-05-26T01:26:32.218Z,13.50
2019-05-26T01:29:03.098Z,13.53
2019-05-26T01:31:34.565Z,14.20
2019-05-26T01:34:06.079Z,15.17
2019-05-26T01:36:39.082Z,14.23
2019-05-26T01:39:10.844Z,13.57
2019-05-26T01:41:41.986Z,13.30
2019-05-26T01:44:13.643Z,13.77
2019-05-26T01:46:47.241Z,13.47
2019-05-26T01:49:17.156Z,15.47
2019-05-26T01:51:48.528Z,14.90
2019-05-26T01:54:19.972Z,14.30
2019-05-26T01:56:52.770Z,13.80
2019-05-26T01:59:22.805Z,14.27
2019-05-26T02:01:58.818Z,14.53
2019-05-26T02:04:33.733Z,14.47
2019-05-26T02:07:04.739Z,14.27
2019-05-26T02:09:37.131Z,11.83
2019-05-26T02:12:07.405Z,12.97
2019-05-26T02:14:38.554Z,11.37
2019-05-26T02:17:09.557Z,11.40
2019-05-26T02:19:42.010Z,11.90
2019-05-26T02:22:13.110Z,11.40
2019-05-26T02:24:44.033Z,10.83
2019-05-26T02:27:16.689Z,11.48
2019-05-26T02:29:48.946Z,11.23
2019-05-26T02:32:20.061Z,11.83
2019-05-26T02:34:54.365Z,12.63
2019-05-26T02:37:27.001Z,13.37
2019-05-26T02:39:56.937Z,15.20
2019-05-26T02:42:28.387Z,15.43
2019-05-26T02:44:59.692Z,15.37
2019-05-26T02:47:31.783Z,15.87
2019-05-26T02:50:06.221Z,17.60
2019-05-26T02:52:39.972Z,13.10
2019-05-26T02:55:11.085Z,11.77
2019-05-26T02:57:42.108Z,12.17
2019-05-26T03:00:13.665Z,12.17
2019-05-26T03:02:43.911Z,14.77
2019-05-26T03:05:16.277Z,14.87
2019-05-26T03:07:46.189Z,13.00
2019-05-26T03:10:18.887Z,13.20
2019-05-26T03:12:51.070Z,12.43
2019-05-26T03:15:25.855Z,12.73
2019-05-26T03:18:00.996Z,12.83
2019-05-26T03:20:34.789Z,12.83
2019-05-26T03:23:07.011Z,13.03
2019-05-26T03:25:38.540Z,13.80
2019-05-26T03:28:11.297Z,13.67
2019-05-26T03:30:41.205Z,15.07
2019-05-26T03:33:12.086Z,14.87
2019-05-26T03:35:44.279Z,13.87
2019-05-26T03:38:15.735Z,15.40
2019-05-26T03:40:46.997Z,14.53
2019-05-26T03:43:18.188Z,14.50
2019-05-26T03:46:08.825Z,14.70
2019-05-26T03:48:41.121Z,13.90
2019-05-26T03:51:12.427Z,13.87
2019-05-26T03:53:44.862Z,14.30
2019-05-26T03:56:16.334Z,14.75
2019-05-26T03:58:48.927Z,14.10
2019-05-26T04:01:22.482Z,14.93
2019-05-26T04:03:55.181Z,13.73
2019-05-26T04:06:26.074Z,14.67
2019-05-26T04:08:59.165Z,14.47
2019-05-26T04:11:28.841Z,13.80
2019-05-26T04:14:02.442Z,15.15
2019-05-26T04:16:35.430Z,15.07
2019-05-26T04:19:09.654Z,15.43
2019-05-26T04:21:42.457Z,15.57
2019-05-26T04:24:12.548Z,16.17
2019-05-26T04:26:44.077Z,16.97
2019-05-26T04:29:17.102Z,17.50
2019-05-26T04:31:46.886Z,19.23
2019-05-26T04:34:18.993Z,17.53
2019-05-26T04:36:51.565Z,16.43
2019-05-26T04:39:24.084Z,16.97
2019-05-26T04:41:57.821Z,14.43
2019-05-26T04:44:30.097Z,14.20
2019-05-26T04:47:03.436Z,13.30
2019-05-26T04:49:37.425Z,14.93
2019-05-26T04:52:05.070Z,14.00
2019-05-26T04:54:36.133Z,13.53
2019-05-26T04:57:07.208Z,13.57
2019-05-26T04:59:38.475Z,13.63
2019-05-26T05:02:09.527Z,13.83
2019-05-26T05:04:42.213Z,12.43
2019-05-26T05:07:13.490Z,11.68
2019-05-26T05:09:45.287Z,12.10
2019-05-26T05:12:16.825Z,12.50
2019-05-26T05:14:48.190Z,12.63
2019-05-26T05:17:19.256Z,11.57
2019-05-26T05:19:50.458Z,12.37
2019-05-26T05:22:23.224Z,12.88
2019-05-26T05:24:55.559Z,11.10
2019-05-26T05:27:30.348Z,10.43
2019-05-26T05:30:09.402Z,8.37
2019-05-26T05:32:44.080Z,9.43
2019-05-26T05:35:33.369Z,6.30
2019-05-26T05:38:05.615Z,7.08
2019-05-26T05:40:40.791Z,5.70
2019-05-26T05:43:11.961Z,6.10
2019-05-26T05:45:45.536Z,6.93
2019-05-26T05:48:16.468Z,6.37
2019-05-26T05:50:50.660Z,6.10
2019-05-26T05:53:22.251Z,5.23
2019-05-26T05:55:55.299Z,5.23
2019-05-26T05:58:26.715Z,4.67
2019-05-26T06:01:01.067Z,4.53
2019-05-26T06:03:32.070Z,4.37
2019-05-26T06:06:02.985Z,4.73
2019-05-26T06:08:36.355Z,5.23
2019-05-26T06:11:16.494Z,5.40
2019-05-26T06:13:42.340Z,5.00
2019-05-26T06:16:15.543Z,4.30
2019-05-26T06:18:47.915Z,5.17
2019-05-26T06:21:21.834Z,4.97
2019-05-26T06:23:51.151Z,6.00
2019-05-26T06:26:23.377Z,4.90
2019-05-26T06:28:55.325Z,5.30
2019-05-26T06:31:29.562Z,3.70
2019-05-26T06:33:59.707Z,4.30
2019-05-26T06:36:29.709Z,4.53
2019-05-26T06:39:04.222Z,3.77
2019-05-26T06:41:35.457Z,4.50
2019-05-26T06:44:09.332Z,3.98
2019-05-26T06:46:42.651Z,4.33
2019-05-26T06:49:13.719Z,3.47
2019-05-26T06:51:44.866Z,4.07
2019-05-26T06:54:19.003Z,4.12
2019-05-26T06:56:51.609Z,4.13
2019-05-26T06:59:23.887Z,3.47
2019-05-26T07:01:56.187Z,4.10
2019-05-26T07:04:27.556Z,3.93
2019-05-26T07:07:02.064Z,3.80
2019-05-26T07:09:34.569Z,3.40
2019-05-26T07:12:07.828Z,3.27
2019-05-26T07:14:38.776Z,4.00
2019-05-26T07:17:11.223Z,4.37
2019-05-26T07:19:42.832Z,4.03
2019-05-26T07:22:17.516Z,5.13
2019-05-26T07:24:50.759Z,4.20
2019-05-26T07:27:20.844Z,3.90
2019-05-26T07:29:50.944Z,4.23
2019-05-26T07:32:24.710Z,3.80
2019-05-26T07:34:59.320Z,4.67
2019-05-26T07:37:31.735Z,3.73
2019-05-26T07:40:07.300Z,4.33
2019-05-26T07:45:16.643Z,3.83
2019-05-26T07:47:47.799Z,4.40
2019-05-26T07:50:21.138Z,4.27
2019-05-26T07:52:54.953Z,4.10
2019-05-26T07:55:26.312Z,4.20
2019-05-26T07:57:58.789Z,3.83
2019-05-26T08:00:29.954Z,4.43
2019-05-26T08:03:02.560Z,4.37
2019-05-26T08:05:34.909Z,4.40
2019-05-26T08:08:12.783Z,4.40
2019-05-26T08:10:37.136Z,3.90
2019-05-26T08:13:07.003Z,3.43
2019-05-26T08:15:42.018Z,3.97
2019-05-26T08:18:13.961Z,3.70
2019-05-26T08:20:45.171Z,4.53
2019-05-26T08:23:16.302Z,3.70
2019-05-26T08:25:47.909Z,4.10
2019-05-26T08:28:18.901Z,3.90
2019-05-26T08:30:49.858Z,4.27
2019-05-26T08:33:19.708Z,4.73
2019-05-26T08:35:51.035Z,4.07
2019-05-26T08:38:21.868Z,4.10
2019-05-26T08:40:54.465Z,4.10
2019-05-26T08:43:26.825Z,4.35
2019-05-26T08:45:58.029Z,4.07
2019-05-26T08:48:30.776Z,4.43
2019-05-26T08:51:01.911Z,3.93
2019-05-26T08:53:35.142Z,5.10
2019-05-26T08:56:08.866Z,3.97
2019-05-26T08:58:39.856Z,3.70
2019-05-26T09:01:13.678Z,4.10
2019-05-26T09:03:46.237Z,3.47
2019-05-26T09:06:21.317Z,4.33
2019-05-26T09:08:54.185Z,4.20
2019-05-26T09:11:28.026Z,4.58
2019-05-26T09:13:57.897Z,3.73
2019-05-26T09:16:30.274Z,4.47
2019-05-26T09:19:03.213Z,4.00
2019-05-26T09:21:38.356Z,4.20
2019-05-26T09:24:09.819Z,4.50
2019-05-26T09:26:41.802Z,4.33
2019-05-26T09:29:12.777Z,4.40
2019-05-26T09:31:46.862Z,5.30
2019-05-26T09:34:20.337Z,4.87
2019-05-26T09:36:53.120Z,5.10
2019-05-26T09:39:25.831Z,5.50
2019-05-26T09:41:58.650Z,4.40
2019-05-26T09:44:28.775Z,4.20
2019-05-26T09:47:01.144Z,5.47
2019-05-26T09:49:32.082Z,5.00
2019-05-26T09:52:04.411Z,4.67
2019-05-26T09:54:40.270Z,4.50
2019-05-26T09:57:13.103Z,4.67
2019-05-26T09:59:44.208Z,4.63
2019-05-26T10:02:15.877Z,4.47
2019-05-26T10:04:45.841Z,3.70
2019-05-26T10:07:16.842Z,4.20
2019-05-26T10:09:48.755Z,4.60
2019-05-26T10:12:18.860Z,4.00
2019-05-26T10:14:53.214Z,4.10
2019-05-26T10:17:24.401Z,4.53
2019-05-26T10:19:57.763Z,4.67
2019-05-26T10:22:29.716Z,3.45
2019-05-26T10:25:04.588Z,3.85
2019-05-26T10:27:37.140Z,3.67
2019-05-26T10:30:14.695Z,3.10
2019-05-26T10:32:45.839Z,3.20
2019-05-26T10:35:17.444Z,3.17
2019-05-26T10:37:50.446Z,2.60
2019-05-26T10:40:26.014Z,3.33
2019-05-26T10:42:57.875Z,3.37
2019-05-26T10:45:34.157Z,3.45
2019-05-26T10:48:03.744Z,2.90
2019-05-26T10:50:35.045Z,3.03
2019-05-26T10:53:07.540Z,2.90
2019-05-26T10:55:39.171Z,3.40
2019-05-26T10:58:11.787Z,2.93
2019-05-26T11:00:44.712Z,3.47
2019-05-26T11:03:15.783Z,3.70
2019-05-26T11:05:49.528Z,3.50
2019-05-26T11:08:22.110Z,3.17
2019-05-26T11:10:56.233Z,3.70
2019-05-26T11:13:27.892Z,4.05
2019-05-26T11:15:57.811Z,3.77
2019-05-26T11:18:29.284Z,4.25
2019-05-26T11:21:19.650Z,3.47
2019-05-26T11:23:51.213Z,2.92
2019-05-26T11:26:24.850Z,4.17
2019-05-26T11:28:56.610Z,3.22
2019-05-26T11:31:27.777Z,3.70
2019-05-26T11:34:00.671Z,4.12
2019-05-26T11:36:30.626Z,4.03
2019-05-26T11:39:05.856Z,3.30
2019-05-26T11:41:37.558Z,3.50
2019-05-26T11:44:17.635Z,3.70
2019-05-26T11:46:39.739Z,3.05
2019-05-26T11:49:11.028Z,2.98
2019-05-26T11:51:43.497Z,3.10
2019-05-26T11:54:15.934Z,2.77
2019-05-26T11:56:48.406Z,2.95
2019-05-26T11:59:23.236Z,2.40
2019-05-26T12:01:57.784Z,3.72
2019-05-26T12:04:29.332Z,3.15
2019-05-26T12:07:04.626Z,3.40
2019-05-26T12:09:36.048Z,3.42
2019-05-26T12:12:08.816Z,3.02
2019-05-26T12:14:40.402Z,2.70
2019-05-26T12:17:14.532Z,3.10
2019-05-26T12:19:49.935Z,2.70
2019-05-26T12:22:22.399Z,2.80
2019-05-26T12:24:55.479Z,2.97
2019-05-26T12:27:25.511Z,2.97
2019-05-26T12:29:55.651Z,3.43
2019-05-26T12:32:45.957Z,3.40
2019-05-26T12:35:18.223Z,3.17
2019-05-26T12:37:51.646Z,2.83
2019-05-26T12:40:24.534Z,2.72
2019-05-26T12:42:55.714Z,3.07
2019-05-26T12:45:28.533Z,3.83
2019-05-26T12:50:32.665Z,3.00
2019-05-26T12:53:02.976Z,2.60
2019-05-26T12:55:34.359Z,2.70
2019-05-26T12:58:09.262Z,3.13
2019-05-26T13:00:48.985Z,2.60
2019-05-26T13:03:17.359Z,2.70
2019-05-26T13:05:50.084Z,2.80
2019-05-26T13:08:21.978Z,3.07
2019-05-26T13:13:26.330Z,3.10
2019-05-26T13:16:00.049Z,2.57
2019-05-26T13:18:33.745Z,2.80
2019-05-26T13:21:08.828Z,2.77
2019-05-26T13:23:41.291Z,2.63
2019-05-26T13:26:13.710Z,2.50
2019-05-26T13:28:46.793Z,2.70
2019-05-26T13:31:17.286Z,2.87
2019-05-26T13:33:48.474Z,2.43
2019-05-26T13:36:20.876Z,2.20
2019-05-26T13:38:52.047Z,2.50
2019-05-26T13:41:23.585Z,2.23
2019-05-26T13:43:55.661Z,2.10
2019-05-26T13:46:29.917Z,2.10
2019-05-26T13:49:02.604Z,2.00
2019-05-26T13:51:34.529Z,2.23
2019-05-26T13:54:06.908Z,2.50
2019-05-26T13:56:37.394Z,2.20
2019-05-26T13:59:12.641Z,2.10
2019-05-26T14:01:45.273Z,2.20
2019-05-26T14:04:16.954Z,2.00
2019-05-26T14:06:48.687Z,2.07
2019-05-26T14:09:19.928Z,2.10
2019-05-26T14:11:52.359Z,2.00
2019-05-26T14:14:24.676Z,2.47
2019-05-26T14:16:57.109Z,2.10
2019-05-26T14:22:01.399Z,1.60
2019-05-26T14:24:32.387Z,1.90
2019-05-26T14:27:05.104Z,1.80
2019-05-26T14:29:36.460Z,2.00
2019-05-26T14:32:08.745Z,1.83
2019-05-26T14:34:40.281Z,1.70
2019-05-26T14:37:10.555Z,2.30
2019-05-26T14:39:41.858Z,2.00
2019-05-26T14:42:13.923Z,1.50
2019-05-26T14:44:46.657Z,1.40
2019-05-26T14:47:16.628Z,1.90
2019-05-26T14:49:50.927Z,1.70
2019-05-26T14:52:23.306Z,2.05
2019-05-26T14:54:56.806Z,1.77
2019-05-26T14:57:31.027Z,1.90
2019-05-26T15:00:02.004Z,2.10
2019-05-26T15:02:34.326Z,2.00
2019-05-26T15:05:08.150Z,2.17
2019-05-26T15:07:41.216Z,1.53
2019-05-26T15:10:16.569Z,1.65
2019-05-26T15:12:47.802Z,2.03
2019-05-26T15:15:20.246Z,2.23
2019-05-26T15:17:51.417Z,1.77
2019-05-26T15:20:21.523Z,1.80
2019-05-26T15:22:53.191Z,1.73
2019-05-26T15:25:26.496Z,1.63
2019-05-26T15:27:57.788Z,1.77
2019-05-26T15:30:30.152Z,1.87
2019-05-26T15:33:03.436Z,1.50
2019-05-26T15:35:35.194Z,1.80
2019-05-26T15:38:06.250Z,1.60
2019-05-26T15:40:40.013Z,2.03
2019-05-26T15:43:13.049Z,1.70
2019-05-26T15:45:46.253Z,2.00
2019-05-26T15:48:18.960Z,1.83
2019-05-26T15:50:50.073Z,1.87
2019-05-26T15:53:21.634Z,1.57
2019-05-26T15:55:51.781Z,1.53
2019-05-26T15:58:26.446Z,2.00
2019-05-26T16:00:59.371Z,1.50
2019-05-26T16:03:30.555Z,1.75
2019-05-26T16:06:02.108Z,1.90
2019-05-26T16:08:37.165Z,1.90
2019-05-26T16:11:08.119Z,1.80
2019-05-26T16:13:38.173Z,1.47
2019-05-26T16:16:10.343Z,1.60
2019-05-26T16:18:41.800Z,1.87
2019-05-26T16:21:26.948Z,1.50
2019-05-26T16:23:49.106Z,1.60
2019-05-26T16:26:19.073Z,1.77
2019-05-26T16:28:52.632Z,2.00
2019-05-26T16:31:24.106Z,1.73
2019-05-26T16:33:55.582Z,1.87
2019-05-26T16:36:26.554Z,2.57
2019-05-26T16:38:57.968Z,2.00
2019-05-26T16:41:30.347Z,1.80
2019-05-26T16:44:02.973Z,1.80
2019-05-26T16:46:35.499Z,1.90
2019-05-26T16:49:06.810Z,1.90
2019-05-26T16:51:37.983Z,1.97
2019-05-26T16:54:09.669Z,1.97
2019-05-26T16:56:42.046Z,2.37
2019-05-26T16:59:13.068Z,1.80
2019-05-26T17:01:45.607Z,1.90
2019-05-26T17:04:18.022Z,2.08
2019-05-26T17:06:49.279Z,2.03
2019-05-26T17:09:22.349Z,2.03
2019-05-26T17:11:54.194Z,2.30
2019-05-26T17:14:24.513Z,2.13
2019-05-26T17:17:13.448Z,1.83
2019-05-26T17:19:30.509Z,2.20
2019-05-26T17:22:02.167Z,2.20
2019-05-26T17:24:33.512Z,2.40
2019-05-26T17:27:07.810Z,2.30
2019-05-26T17:29:40.489Z,2.17
2019-05-26T17:32:13.107Z,2.23
2019-05-26T17:34:43.461Z,2.27
2019-05-26T17:37:14.327Z,2.10
2019-05-26T17:39:48.262Z,2.33
2019-05-26T17:42:23.547Z,2.50
2019-05-26T17:44:55.765Z,2.00
2019-05-26T17:47:30.733Z,2.40
2019-05-26T17:50:03.235Z,2.65
2019-05-26T17:52:36.136Z,2.33
2019-05-26T17:55:12.166Z,2.20
2019-05-26T17:57:43.089Z,2.77
2019-05-26T18:00:16.067Z,2.83
2019-05-26T18:02:47.151Z,2.40
2019-05-26T18:05:18.538Z,2.50
2019-05-26T18:07:51.512Z,2.77
2019-05-26T18:10:24.009Z,2.60
2019-05-26T18:12:54.761Z,2.67
2019-05-26T18:15:28.810Z,2.70
2019-05-26T18:18:01.258Z,2.60
2019-05-26T18:20:33.571Z,2.70
2019-05-26T18:23:04.706Z,2.53
2019-05-26T18:25:39.400Z,2.30
2019-05-26T18:28:10.466Z,3.13
2019-05-26T18:31:02.051Z,2.90
2019-05-26T18:33:34.632Z,2.97
2019-05-26T18:36:05.575Z,3.10
2019-05-26T18:38:36.406Z,3.17
2019-05-26T18:41:08.062Z,2.93
2019-05-26T18:43:38.060Z,4.07
2019-05-26T18:46:09.571Z,3.93
2019-05-26T18:48:41.895Z,4.07
2019-05-26T18:51:12.939Z,4.50
2019-05-26T18:53:45.483Z,3.80
2019-05-26T18:56:16.910Z,3.90
2019-05-26T18:58:47.895Z,4.27
2019-05-26T19:01:18.822Z,5.13
2019-05-26T19:03:49.747Z,4.63
2019-05-26T19:06:22.389Z,5.37
2019-05-26T19:08:53.171Z,4.90
2019-05-26T19:11:24.185Z,4.83
2019-05-26T19:13:57.499Z,5.83
2019-05-26T19:16:28.263Z,6.50
2019-05-26T19:18:58.133Z,6.33
2019-05-26T19:21:32.408Z,6.27
2019-05-26T19:24:07.227Z,6.73
2019-05-26T19:26:40.094Z,18.47
2019-05-26T19:29:10.062Z,16.97
2019-05-26T19:31:43.878Z,13.77
2019-05-26T19:34:14.872Z,10.08
2019-05-26T19:36:46.145Z,7.97
2019-05-26T19:39:16.129Z,10.30
2019-05-26T19:41:48.759Z,9.40
2019-05-26T19:46:53.535Z,11.97
2019-05-26T19:49:25.644Z,12.57
2019-05-26T19:51:59.991Z,12.03
2019-05-26T19:54:30.041Z,12.17
2019-05-26T19:57:01.041Z,10.33
2019-05-26T19:59:31.941Z,10.00
2019-05-26T20:02:17.245Z,7.60
2019-05-26T20:04:37.109Z,6.57
2019-05-26T20:07:10.377Z,6.80
2019-05-26T20:09:41.688Z,6.87
2019-05-26T20:12:12.682Z,7.53
2019-05-26T20:14:44.820Z,7.70
2019-05-26T20:17:15.054Z,7.90
2019-05-26T20:19:46.185Z,8.87
2019-05-26T20:22:17.393Z,8.93
2019-05-26T20:24:48.900Z,8.97
2019-05-26T20:27:21.516Z,9.30
2019-05-26T20:29:53.836Z,9.23
2019-05-26T20:32:25.300Z,7.77
2019-05-26T20:34:58.307Z,7.90
2019-05-26T20:37:30.776Z,8.10
2019-05-26T20:40:00.701Z,7.47
2019-05-26T20:42:32.188Z,7.87
2019-05-26T20:45:03.467Z,6.77
2019-05-26T20:47:38.629Z,7.43
2019-05-26T20:50:09.956Z,7.13
2019-05-26T20:52:40.762Z,8.43
2019-05-26T20:55:12.961Z,7.28
2019-05-26T20:57:44.123Z,7.77
2019-05-26T21:00:17.490Z,8.17
2019-05-26T21:02:49.840Z,10.60
2019-05-26T21:05:21.763Z,9.80
2019-05-26T21:07:54.110Z,9.60
2019-05-26T21:10:24.972Z,10.00
2019-05-26T21:13:15.148Z,9.70
2019-05-26T21:15:48.361Z,9.97
2019-05-26T21:18:19.432Z,8.67
2019-05-26T21:20:51.041Z,8.53
2019-05-26T21:23:24.109Z,9.90
2019-05-26T21:25:56.499Z,11.07
2019-05-26T21:28:28.726Z,10.60
2019-05-26T21:31:01.302Z,10.27
2019-05-26T21:33:31.066Z,11.17
2019-05-26T21:36:01.042Z,10.80
2019-05-26T21:38:34.189Z,9.90
2019-05-26T21:41:05.133Z,10.47
2019-05-26T21:43:37.944Z,9.67
2019-05-26T21:46:07.841Z,9.47
2019-05-26T21:48:39.102Z,9.57
2019-05-26T21:51:11.284Z,9.97
2019-05-26T21:53:43.968Z,9.60
2019-05-26T21:56:13.983Z,8.63
2019-05-26T21:58:43.890Z,9.87
2019-05-26T22:01:13.195Z,10.10
2019-05-26T22:03:43.530Z,10.10
2019-05-26T22:06:13.371Z,9.65
2019-05-26T22:08:45.427Z,9.10
2019-05-26T22:11:17.757Z,9.63
2019-05-26T22:13:52.080Z,9.97
2019-05-26T22:16:23.427Z,9.33
2019-05-26T22:18:54.858Z,9.43
2019-05-26T22:21:28.626Z,10.23
2019-05-26T22:23:59.853Z,7.90
2019-05-26T22:26:31.287Z,8.37
2019-05-26T22:29:02.269Z,11.57
2019-05-26T22:31:34.906Z,12.37
2019-05-26T22:34:05.834Z,13.57
2019-05-26T22:36:38.315Z,13.13
2019-05-26T22:39:10.064Z,13.23
2019-05-26T22:41:42.231Z,13.13
2019-05-26T22:44:17.908Z,11.87
2019-05-26T22:46:48.008Z,12.00
2019-05-26T22:49:19.538Z,11.73
2019-05-26T22:51:49.616Z,11.50
2019-05-26T22:54:22.036Z,10.73
2019-05-26T22:56:53.062Z,10.77
2019-05-26T22:59:23.015Z,11.60
2019-05-26T23:01:52.977Z,12.40
2019-05-26T23:04:22.755Z,12.83
2019-05-26T23:06:53.409Z,11.50
2019-05-26T23:09:22.666Z,11.03
2019-05-26T23:11:55.025Z,10.53
2019-05-26T23:14:27.453Z,10.60
2019-05-26T23:16:58.402Z,8.93
2019-05-26T23:19:29.643Z,8.75
2019-05-26T23:22:00.097Z,8.93
2019-05-26T23:24:31.066Z,10.17
2019-05-26T23:27:00.130Z,9.93
2019-05-26T23:29:32.825Z,9.83
2019-05-26T23:32:07.623Z,8.90
2019-05-26T23:34:42.728Z,9.00
2019-05-26T23:37:15.624Z,9.28
2019-05-26T23:39:46.546Z,9.13
2019-05-26T23:42:17.850Z,8.33
2019-05-26T23:44:49.772Z,9.90
2019-05-26T23:47:28.448Z,8.73
2019-05-26T23:49:59.602Z,9.40
2019-05-26T23:52:29.519Z,8.50
2019-05-26T23:55:00.498Z,9.90
2019-05-26T23:57:31.362Z,8.60
